createdAt,value
2022-11-13T00:00:31.417Z,23.05
2022-11-13T00:01:31.260Z,23.09
2022-11-13T00:02:31.186Z,23.09
2022-11-13T00:03:31.008Z,23.12
2022-11-13T00:04:30.885Z,23.13
2022-11-13T00:05:30.768Z,23.15
2022-11-13T00:06:30.673Z,23.16
2022-11-13T00:07:30.579Z,23.15
2022-11-13T00:08:30.904Z,23.13
2022-11-13T00:09:30.262Z,23.13
2022-11-13T00:10:30.145Z,23.15
2022-11-13T00:11:30.028Z,23.17
2022-11-13T00:12:29.920Z,23.19
2022-11-13T00:13:30.674Z,23.19
2022-11-13T00:14:29.641Z,23.19
2022-11-13T00:15:29.522Z,23.17
2022-11-13T00:16:29.389Z,23.16
2022-11-13T00:17:29.269Z,23.17
2022-11-13T00:18:29.595Z,23.16
2022-11-13T00:19:29.005Z,23.16
2022-11-13T00:20:28.889Z,23.16
2022-11-13T00:21:28.765Z,23.16
2022-11-13T00:22:28.638Z,23.17
2022-11-13T00:23:28.510Z,23.17
2022-11-13T00:24:28.425Z,23.19
2022-11-13T00:25:28.258Z,23.19
2022-11-13T00:26:28.135Z,23.23
2022-11-13T00:27:28.005Z,23.22
2022-11-13T00:28:28.204Z,23.20
2022-11-13T00:29:27.763Z,23.20
2022-11-13T00:30:27.661Z,23.20
2022-11-13T00:31:27.522Z,23.20
2022-11-13T00:32:27.397Z,23.22
2022-11-13T00:33:53.549Z,23.19
2022-11-13T00:34:46.549Z,23.22
2022-11-13T00:35:27.039Z,23.23
2022-11-13T00:36:26.959Z,23.22
2022-11-13T00:37:26.787Z,23.22
2022-11-13T00:38:27.152Z,23.22
2022-11-13T00:39:26.538Z,23.23
2022-11-13T00:40:26.406Z,23.23
2022-11-13T00:41:26.286Z,23.25
2022-11-13T00:42:26.207Z,23.27
2022-11-13T00:43:26.026Z,23.25
2022-11-13T00:44:25.906Z,23.28
2022-11-13T00:45:25.771Z,23.25
2022-11-13T00:46:25.653Z,23.27
2022-11-13T00:47:25.531Z,23.31
2022-11-13T00:48:25.771Z,23.28
2022-11-13T00:49:25.282Z,23.32
2022-11-13T00:50:25.150Z,23.28
2022-11-13T00:51:25.019Z,23.31
2022-11-13T00:52:24.894Z,23.32
2022-11-13T00:53:24.765Z,23.31
2022-11-13T00:54:24.674Z,23.31
2022-11-13T00:55:24.506Z,23.25
2022-11-13T00:56:24.383Z,23.23
2022-11-13T00:57:24.251Z,23.23
2022-11-13T00:58:24.124Z,23.22
2022-11-13T00:59:23.983Z,23.33
2022-11-13T01:00:23.887Z,23.54
2022-11-13T01:01:23.817Z,23.46
2022-11-13T01:02:23.599Z,23.35
2022-11-13T01:03:23.479Z,23.28
2022-11-13T01:04:23.359Z,23.19
2022-11-13T01:05:23.238Z,23.13
2022-11-13T01:06:23.148Z,23.12
2022-11-13T01:07:22.999Z,23.09
2022-11-13T01:08:22.872Z,23.10
2022-11-13T01:09:22.752Z,23.09
2022-11-13T01:10:22.639Z,23.07
2022-11-13T01:11:22.523Z,23.10
2022-11-13T01:12:22.448Z,23.05
2022-11-13T01:13:22.299Z,23.05
2022-11-13T01:14:22.185Z,23.05
2022-11-13T01:15:22.079Z,23.04
2022-11-13T01:16:21.968Z,23.04
2022-11-13T01:17:21.861Z,23.05
2022-11-13T01:18:21.776Z,23.05
2022-11-13T01:19:21.631Z,23.04
2022-11-13T01:20:21.524Z,23.05
2022-11-13T01:21:21.413Z,23.04
2022-11-13T01:22:21.292Z,23.04
2022-11-13T01:23:21.179Z,23.04
2022-11-13T01:24:21.080Z,23.04
2022-11-13T01:25:20.939Z,23.05
2022-11-13T01:26:20.815Z,23.05
2022-11-13T01:27:20.709Z,23.02
2022-11-13T01:28:20.587Z,23.00
2022-11-13T01:29:20.472Z,23.00
2022-11-13T01:30:20.407Z,23.01
2022-11-13T01:31:20.248Z,23.01
2022-11-13T01:32:20.145Z,23.00
2022-11-13T01:33:20.032Z,23.01
2022-11-13T01:34:19.916Z,23.01
2022-11-13T01:35:19.821Z,23.01
2022-11-13T01:36:19.728Z,23.01
2022-11-13T01:37:19.584Z,23.00
2022-11-13T01:38:19.468Z,23.02
2022-11-13T01:39:19.357Z,23.02
2022-11-13T01:40:19.240Z,23.00
2022-11-13T01:41:23.368Z,23.01
2022-11-13T01:42:19.057Z,23.01
2022-11-13T01:43:18.909Z,23.01
2022-11-13T01:44:18.798Z,23.01
2022-11-13T01:45:18.673Z,23.02
2022-11-13T01:46:18.568Z,23.01
2022-11-13T01:47:18.449Z,23.02
2022-11-13T01:48:18.378Z,23.04
2022-11-13T01:49:18.230Z,23.02
2022-11-13T01:50:18.115Z,23.04
2022-11-13T01:51:18.006Z,23.04
2022-11-13T01:52:17.894Z,23.04
2022-11-13T01:53:17.794Z,23.04
2022-11-13T01:54:17.713Z,23.00
2022-11-13T01:55:17.573Z,22.95
2022-11-13T01:56:17.465Z,22.90
2022-11-13T01:57:17.352Z,22.88
2022-11-13T01:58:17.242Z,22.83
2022-11-13T01:59:17.133Z,22.80
2022-11-13T02:00:17.045Z,22.77
2022-11-13T02:01:17.038Z,22.76
2022-11-13T02:02:16.810Z,22.75
2022-11-13T02:03:16.701Z,22.76
2022-11-13T02:04:16.598Z,22.80
2022-11-13T02:05:16.521Z,22.82
2022-11-13T02:06:16.378Z,22.77
2022-11-13T02:07:16.349Z,22.68
2022-11-13T02:08:16.134Z,22.58
2022-11-13T02:09:16.027Z,22.47
2022-11-13T02:10:15.922Z,22.37
2022-11-13T02:11:15.822Z,22.30
2022-11-13T02:12:15.730Z,22.22
2022-11-13T02:13:15.598Z,22.15
2022-11-13T02:14:15.502Z,22.09
2022-11-13T02:15:15.396Z,22.05
2022-11-13T02:16:15.294Z,22.03
2022-11-13T02:17:15.195Z,21.99
2022-11-13T02:18:15.147Z,21.98
2022-11-13T02:19:15.024Z,21.98
2022-11-13T02:20:14.902Z,21.91
2022-11-13T02:21:14.810Z,21.86
2022-11-13T02:22:14.722Z,21.83
2022-11-13T02:23:14.630Z,21.83
2022-11-13T02:24:14.583Z,21.82
2022-11-13T02:25:14.450Z,21.77
2022-11-13T02:26:14.366Z,21.77
2022-11-13T02:27:14.280Z,21.72
2022-11-13T02:28:14.211Z,21.71
2022-11-13T02:29:14.112Z,21.69
2022-11-13T02:30:16.380Z,21.65
2022-11-13T02:31:13.953Z,21.61
2022-11-13T02:32:13.868Z,21.59
2022-11-13T02:33:13.787Z,21.58
2022-11-13T02:34:13.707Z,21.58
2022-11-13T02:35:13.637Z,21.50
2022-11-13T02:36:13.599Z,21.50
2022-11-13T02:37:13.495Z,21.49
2022-11-13T02:38:13.424Z,21.44
2022-11-13T02:39:13.359Z,21.42
2022-11-13T02:40:13.287Z,21.40
2022-11-13T02:41:13.335Z,21.37
2022-11-13T02:42:13.181Z,21.34
2022-11-13T02:43:13.139Z,21.34
2022-11-13T02:44:13.039Z,21.31
2022-11-13T02:45:12.987Z,21.31
2022-11-13T02:46:12.924Z,21.28
2022-11-13T02:47:12.862Z,21.27
2022-11-13T02:48:12.831Z,21.24
2022-11-13T02:49:12.760Z,21.24
2022-11-13T02:50:12.699Z,21.22
2022-11-13T02:51:12.643Z,21.22
2022-11-13T02:52:12.652Z,21.21
2022-11-13T02:53:12.544Z,21.17
2022-11-13T02:54:16.758Z,21.16
2022-11-13T02:55:12.444Z,21.14
2022-11-13T02:56:12.396Z,21.13
2022-11-13T02:57:12.342Z,21.13
2022-11-13T02:58:12.299Z,21.12
2022-11-13T02:59:12.257Z,21.10
2022-11-13T03:00:13.988Z,21.10
2022-11-13T03:01:12.232Z,21.09
2022-11-13T03:02:12.129Z,21.07
2022-11-13T03:03:12.088Z,21.07
2022-11-13T03:04:12.042Z,21.06
2022-11-13T03:05:13.518Z,21.06
2022-11-13T03:06:11.972Z,21.06
2022-11-13T03:07:11.985Z,21.06
2022-11-13T03:08:11.861Z,21.04
2022-11-13T03:09:11.809Z,21.03
2022-11-13T03:10:11.786Z,21.03
2022-11-13T03:11:11.745Z,21.01
2022-11-13T03:12:11.746Z,20.99
2022-11-13T03:13:11.677Z,20.99
2022-11-13T03:14:11.632Z,20.99
2022-11-13T03:15:11.597Z,20.98
2022-11-13T03:16:11.554Z,20.98
2022-11-13T03:17:11.526Z,20.98
2022-11-13T03:18:11.521Z,20.97
2022-11-13T03:19:11.468Z,20.95
2022-11-13T03:20:11.436Z,20.94
2022-11-13T03:21:11.401Z,20.94
2022-11-13T03:22:11.381Z,20.92
2022-11-13T03:23:11.357Z,20.92
2022-11-13T03:24:11.369Z,20.92
2022-11-13T03:25:11.418Z,20.92
2022-11-13T03:26:11.297Z,20.92
2022-11-13T03:27:11.274Z,20.92
2022-11-13T03:28:11.233Z,20.91
2022-11-13T03:29:11.213Z,20.89
2022-11-13T03:30:11.229Z,20.89
2022-11-13T03:31:11.169Z,20.88
2022-11-13T03:32:11.142Z,20.89
2022-11-13T03:33:11.126Z,20.88
2022-11-13T03:34:11.094Z,20.88
2022-11-13T03:35:11.073Z,20.87
2022-11-13T03:36:11.097Z,20.87
2022-11-13T03:37:11.035Z,20.87
2022-11-13T03:38:11.002Z,20.88
2022-11-13T03:39:10.981Z,20.87
2022-11-13T03:40:10.965Z,20.87
2022-11-13T03:41:10.950Z,20.85
2022-11-13T03:42:10.969Z,20.84
2022-11-13T03:43:10.914Z,20.84
2022-11-13T03:44:10.887Z,20.80
2022-11-13T03:45:10.860Z,20.80
2022-11-13T03:46:10.837Z,20.80
2022-11-13T03:47:10.801Z,20.82
2022-11-13T03:48:10.817Z,20.80
2022-11-13T03:49:10.769Z,20.82
2022-11-13T03:50:10.754Z,20.82
2022-11-13T03:51:10.734Z,20.82
2022-11-13T03:52:10.714Z,20.79
2022-11-13T03:53:10.702Z,20.80
2022-11-13T03:54:10.698Z,20.77
2022-11-13T03:55:10.658Z,20.79
2022-11-13T03:56:10.645Z,20.79
2022-11-13T03:57:10.638Z,20.77
2022-11-13T03:58:10.618Z,20.77
2022-11-13T03:59:10.602Z,20.76
2022-11-13T04:00:10.610Z,20.76
2022-11-13T04:01:10.578Z,20.77
2022-11-13T04:02:10.557Z,20.76
2022-11-13T04:03:10.549Z,20.76
2022-11-13T04:04:10.530Z,20.74
2022-11-13T04:05:10.512Z,20.73
2022-11-13T04:06:10.533Z,20.73
2022-11-13T04:07:10.576Z,20.73
2022-11-13T04:08:10.482Z,20.73
2022-11-13T04:09:10.467Z,20.73
2022-11-13T04:10:10.454Z,20.73
2022-11-13T04:11:10.442Z,20.73
2022-11-13T04:12:10.475Z,20.73
2022-11-13T04:13:10.422Z,20.73
2022-11-13T04:14:10.411Z,20.73
2022-11-13T04:15:10.394Z,20.72
2022-11-13T04:16:10.418Z,20.73
2022-11-13T04:17:10.370Z,20.73
2022-11-13T04:18:10.387Z,20.73
2022-11-13T04:19:10.343Z,20.72
2022-11-13T04:20:10.331Z,20.74
2022-11-13T04:21:10.314Z,20.73
2022-11-13T04:22:10.297Z,20.74
2022-11-13T04:23:10.278Z,20.73
2022-11-13T04:24:10.306Z,20.74
2022-11-13T04:25:10.247Z,20.73
2022-11-13T04:26:10.230Z,20.73
2022-11-13T04:27:10.210Z,20.73
2022-11-13T04:28:10.190Z,20.73
2022-11-13T04:29:10.170Z,20.74
2022-11-13T04:30:10.202Z,20.73
2022-11-13T04:31:10.147Z,20.73
2022-11-13T04:32:10.135Z,20.73
2022-11-13T04:33:10.114Z,20.73
2022-11-13T04:34:10.104Z,20.73
2022-11-13T04:35:10.086Z,20.73
2022-11-13T04:36:10.103Z,20.73
2022-11-13T04:37:10.060Z,20.72
2022-11-13T04:38:10.042Z,20.70
2022-11-13T04:39:10.035Z,20.72
2022-11-13T04:40:10.019Z,20.72
2022-11-13T04:41:10.021Z,20.70
2022-11-13T04:42:10.047Z,20.72
2022-11-13T04:43:09.995Z,20.70
2022-11-13T04:44:09.983Z,20.70
2022-11-13T04:45:09.973Z,20.70
2022-11-13T04:46:09.966Z,20.70
2022-11-13T04:47:09.956Z,20.70
2022-11-13T04:48:09.977Z,20.69
2022-11-13T04:49:09.943Z,20.70
2022-11-13T04:50:09.933Z,20.70
2022-11-13T04:51:09.923Z,20.69
2022-11-13T04:52:09.907Z,20.69
2022-11-13T04:53:09.902Z,20.69
2022-11-13T04:54:09.932Z,20.69
2022-11-13T04:55:09.887Z,20.69
2022-11-13T04:56:09.883Z,20.69
2022-11-13T04:57:09.880Z,20.69
2022-11-13T04:58:09.879Z,20.67
2022-11-13T04:59:09.880Z,20.67
2022-11-13T05:00:09.912Z,20.67
2022-11-13T05:01:09.879Z,20.67
2022-11-13T05:02:09.891Z,20.66
2022-11-13T05:03:09.864Z,20.67
2022-11-13T05:04:09.851Z,20.69
2022-11-13T05:05:09.847Z,20.67
2022-11-13T05:06:09.884Z,20.67
2022-11-13T05:07:09.869Z,20.66
2022-11-13T05:08:09.831Z,20.66
2022-11-13T05:09:09.820Z,20.66
2022-11-13T05:10:09.818Z,20.67
2022-11-13T05:11:09.807Z,20.66
2022-11-13T05:12:09.832Z,20.66
2022-11-13T05:13:09.787Z,20.66
2022-11-13T05:14:09.792Z,20.66
2022-11-13T05:15:09.777Z,20.66
2022-11-13T05:16:09.772Z,20.66
2022-11-13T05:17:09.769Z,20.66
2022-11-13T05:18:09.799Z,20.64
2022-11-13T05:19:09.768Z,20.64
2022-11-13T05:20:09.755Z,20.64
2022-11-13T05:21:09.752Z,20.64
2022-11-13T05:22:09.732Z,20.66
2022-11-13T05:23:09.732Z,20.64
2022-11-13T05:24:09.748Z,20.64
2022-11-13T05:25:09.720Z,20.64
2022-11-13T05:26:09.708Z,20.64
2022-11-13T05:27:15.859Z,20.64
2022-11-13T05:28:09.708Z,20.64
2022-11-13T05:29:09.688Z,20.64
2022-11-13T05:30:09.700Z,20.64
2022-11-13T05:31:09.660Z,20.62
2022-11-13T05:32:09.645Z,20.64
2022-11-13T05:33:09.640Z,20.64
2022-11-13T05:34:09.627Z,20.64
2022-11-13T05:35:09.626Z,20.66
2022-11-13T05:36:09.641Z,20.64
2022-11-13T05:37:09.604Z,20.64
2022-11-13T05:38:09.593Z,20.64
2022-11-13T05:39:09.589Z,20.62
2022-11-13T05:40:09.584Z,20.64
2022-11-13T05:41:09.582Z,20.64
2022-11-13T05:42:09.610Z,20.64
2022-11-13T05:43:09.581Z,20.66
2022-11-13T05:44:09.573Z,20.64
2022-11-13T05:45:09.569Z,20.66
2022-11-13T05:46:09.564Z,20.64
2022-11-13T05:47:09.556Z,20.66
2022-11-13T05:48:09.591Z,20.66
2022-11-13T05:49:09.556Z,20.66
2022-11-13T05:50:09.544Z,20.66
2022-11-13T05:51:09.537Z,20.66
2022-11-13T05:52:09.541Z,20.64
2022-11-13T05:53:09.525Z,20.67
2022-11-13T05:54:09.560Z,20.67
2022-11-13T05:55:09.526Z,20.67
2022-11-13T05:56:09.520Z,20.66
2022-11-13T05:57:09.513Z,20.64
2022-11-13T05:58:09.514Z,20.64
2022-11-13T05:59:09.509Z,20.64
2022-11-13T06:00:09.542Z,20.66
2022-11-13T06:01:09.503Z,20.66
2022-11-13T06:02:09.525Z,20.64
2022-11-13T06:03:09.492Z,20.64
2022-11-13T06:04:09.489Z,20.64
2022-11-13T06:05:09.482Z,20.64
2022-11-13T06:06:09.509Z,20.64
2022-11-13T06:07:09.519Z,20.66
2022-11-13T06:08:09.472Z,20.66
2022-11-13T06:09:09.469Z,20.64
2022-11-13T06:10:09.466Z,20.64
2022-11-13T06:11:09.470Z,20.64
2022-11-13T06:12:09.509Z,20.64
2022-11-13T06:13:09.465Z,20.62
2022-11-13T06:14:09.467Z,20.64
2022-11-13T06:15:09.457Z,20.62
2022-11-13T06:16:09.454Z,20.64
2022-11-13T06:17:09.447Z,20.66
2022-11-13T06:18:09.503Z,20.62
2022-11-13T06:19:09.452Z,20.62
2022-11-13T06:20:09.447Z,20.61
2022-11-13T06:21:09.446Z,20.61
2022-11-13T06:22:09.451Z,20.59
2022-11-13T06:23:09.447Z,20.61
2022-11-13T06:24:09.470Z,20.61
2022-11-13T06:25:09.441Z,20.59
2022-11-13T06:26:09.426Z,20.59
2022-11-13T06:27:09.425Z,20.59
2022-11-13T06:28:09.423Z,20.59
2022-11-13T06:29:09.416Z,20.61
2022-11-13T06:30:09.430Z,20.61
2022-11-13T06:31:09.410Z,20.61
2022-11-13T06:32:09.395Z,20.59
2022-11-13T06:33:09.392Z,20.61
2022-11-13T06:34:09.387Z,20.61
2022-11-13T06:35:09.378Z,20.59
2022-11-13T06:36:09.403Z,20.58
2022-11-13T06:37:09.359Z,20.59
2022-11-13T06:38:09.356Z,20.58
2022-11-13T06:39:09.463Z,20.57
2022-11-13T06:40:09.342Z,20.57
2022-11-13T06:41:09.327Z,20.58
2022-11-13T06:42:09.363Z,20.59
2022-11-13T06:43:09.319Z,20.59
2022-11-13T06:44:09.322Z,20.59
2022-11-13T06:45:09.315Z,20.59
2022-11-13T06:46:09.305Z,20.58
2022-11-13T06:47:09.312Z,20.58
2022-11-13T06:48:09.343Z,20.59
2022-11-13T06:49:09.304Z,20.59
2022-11-13T06:50:09.303Z,20.58
2022-11-13T06:51:09.293Z,20.59
2022-11-13T06:52:09.304Z,20.59
2022-11-13T06:53:09.285Z,20.59
2022-11-13T06:54:09.305Z,20.59
2022-11-13T06:55:09.265Z,20.59
2022-11-13T06:56:09.252Z,20.59
2022-11-13T06:57:09.245Z,20.59
2022-11-13T06:58:09.233Z,20.59
2022-11-13T06:59:09.232Z,20.61
2022-11-13T07:00:09.261Z,20.59
2022-11-13T07:01:09.312Z,20.61
2022-11-13T07:02:09.328Z,20.61
2022-11-13T07:03:09.208Z,20.61
2022-11-13T07:04:09.198Z,20.61
2022-11-13T07:05:09.188Z,20.62
2022-11-13T07:06:09.217Z,20.61
2022-11-13T07:07:09.192Z,20.61
2022-11-13T07:08:09.165Z,20.61
2022-11-13T07:09:09.169Z,20.61
2022-11-13T07:10:09.153Z,20.59
2022-11-13T07:11:09.145Z,20.61
2022-11-13T07:12:09.196Z,20.61
2022-11-13T07:13:09.133Z,20.62
2022-11-13T07:14:09.129Z,20.61
2022-11-13T07:15:09.121Z,20.62
2022-11-13T07:16:16.458Z,20.62
2022-11-13T07:17:10.550Z,20.61
2022-11-13T07:18:09.145Z,20.59
2022-11-13T07:19:09.094Z,20.61
2022-11-13T07:20:09.094Z,20.61
2022-11-13T07:21:09.081Z,20.62
2022-11-13T07:22:09.075Z,20.62
2022-11-13T07:23:09.066Z,20.62
2022-11-13T07:24:14.044Z,20.62
2022-11-13T07:25:09.057Z,20.61
2022-11-13T07:26:09.045Z,20.59
2022-11-13T07:27:09.030Z,20.59
2022-11-13T07:28:09.026Z,20.58
2022-11-13T07:29:09.025Z,20.58
2022-11-13T07:30:09.050Z,20.59
2022-11-13T07:31:09.010Z,20.58
2022-11-13T07:32:09.002Z,20.59
2022-11-13T07:33:08.991Z,20.59
2022-11-13T07:34:08.988Z,20.59
2022-11-13T07:35:08.982Z,20.58
2022-11-13T07:36:09.011Z,20.58
2022-11-13T07:37:08.962Z,20.59
2022-11-13T07:38:08.955Z,20.58
2022-11-13T07:39:08.942Z,20.59
2022-11-13T07:40:08.936Z,20.59
2022-11-13T07:41:08.923Z,20.58
2022-11-13T07:42:08.950Z,20.57
2022-11-13T07:43:08.922Z,20.58
2022-11-13T07:44:09.640Z,20.57
2022-11-13T07:45:08.919Z,20.57
2022-11-13T07:46:08.911Z,20.57
2022-11-13T07:47:08.902Z,20.58
2022-11-13T07:48:08.939Z,20.58
2022-11-13T07:49:08.898Z,20.57
2022-11-13T07:50:11.036Z,20.58
2022-11-13T07:51:08.867Z,20.57
2022-11-13T07:52:08.863Z,20.57
2022-11-13T07:53:08.855Z,20.57
2022-11-13T07:54:08.887Z,20.57
2022-11-13T07:55:08.839Z,20.57
2022-11-13T07:56:08.852Z,20.57
2022-11-13T07:57:08.847Z,20.55
2022-11-13T07:58:08.847Z,20.55
2022-11-13T07:59:08.839Z,20.55
2022-11-13T08:00:08.876Z,20.55
2022-11-13T08:01:08.865Z,20.55
2022-11-13T08:02:08.816Z,20.55
2022-11-13T08:03:08.812Z,20.55
2022-11-13T08:04:08.804Z,20.54
2022-11-13T08:05:08.787Z,20.55
2022-11-13T08:06:08.816Z,20.54
2022-11-13T08:07:08.800Z,20.54
2022-11-13T08:08:08.783Z,20.54
2022-11-13T08:09:08.757Z,20.54
2022-11-13T08:10:08.759Z,20.54
2022-11-13T08:11:08.742Z,20.55
2022-11-13T08:12:08.760Z,20.54
2022-11-13T08:13:08.724Z,20.57
2022-11-13T08:14:08.721Z,20.54
2022-11-13T08:15:13.221Z,20.55
2022-11-13T08:16:08.704Z,20.54
2022-11-13T08:17:08.703Z,20.55
2022-11-13T08:18:08.728Z,20.55
2022-11-13T08:19:08.680Z,20.52
2022-11-13T08:20:08.672Z,20.54
2022-11-13T08:21:14.534Z,20.54
2022-11-13T08:22:08.667Z,20.54
2022-11-13T08:23:08.653Z,20.52
2022-11-13T08:24:08.685Z,20.54
2022-11-13T08:25:08.636Z,20.54
2022-11-13T08:26:08.637Z,20.55
2022-11-13T08:27:08.625Z,20.54
2022-11-13T08:28:12.872Z,20.54
2022-11-13T08:29:08.633Z,20.55
2022-11-13T08:30:08.669Z,20.55
2022-11-13T08:31:08.622Z,20.59
2022-11-13T08:32:08.629Z,20.62
2022-11-13T08:33:08.613Z,20.50
2022-11-13T08:34:08.615Z,20.24
2022-11-13T08:35:08.619Z,20.03
2022-11-13T08:36:08.641Z,19.84
2022-11-13T08:37:08.599Z,19.71
2022-11-13T08:38:08.601Z,19.62
2022-11-13T08:39:08.598Z,19.54
2022-11-13T08:40:08.595Z,19.48
2022-11-13T08:41:09.787Z,19.48
2022-11-13T08:42:08.618Z,19.50
2022-11-13T08:43:08.583Z,19.47
2022-11-13T08:44:08.583Z,19.47
2022-11-13T08:45:08.574Z,19.44
2022-11-13T08:46:08.569Z,19.41
2022-11-13T08:47:08.569Z,19.43
2022-11-13T08:48:08.603Z,19.40
2022-11-13T08:49:08.566Z,19.41
2022-11-13T08:50:08.562Z,19.41
2022-11-13T08:51:08.554Z,19.40
2022-11-13T08:52:08.562Z,19.41
2022-11-13T08:53:08.559Z,19.41
2022-11-13T08:54:08.580Z,19.40
2022-11-13T08:55:08.564Z,19.39
2022-11-13T08:56:08.553Z,19.39
2022-11-13T08:57:08.561Z,19.39
2022-11-13T08:58:08.557Z,19.40
2022-11-13T08:59:08.556Z,19.40
2022-11-13T09:00:08.582Z,19.43
2022-11-13T09:01:08.556Z,19.47
2022-11-13T09:02:08.555Z,19.48
2022-11-13T09:03:08.559Z,19.51
2022-11-13T09:04:08.588Z,19.55
2022-11-13T09:05:08.562Z,19.56
2022-11-13T09:06:08.596Z,19.59
2022-11-13T09:07:08.646Z,19.62
2022-11-13T09:08:08.556Z,19.65
2022-11-13T09:09:08.563Z,19.73
2022-11-13T09:10:08.563Z,19.76
2022-11-13T09:11:08.568Z,19.76
2022-11-13T09:12:08.607Z,19.81
2022-11-13T09:13:08.563Z,19.86
2022-11-13T09:14:08.565Z,19.91
2022-11-13T09:15:08.568Z,19.94
2022-11-13T09:16:08.560Z,19.96
2022-11-13T09:17:08.555Z,19.99
2022-11-13T09:18:08.580Z,20.05
2022-11-13T09:19:08.551Z,20.10
2022-11-13T09:20:12.676Z,20.14
2022-11-13T09:21:08.555Z,20.17
2022-11-13T09:22:08.549Z,20.23
2022-11-13T09:23:08.552Z,20.28
2022-11-13T09:24:08.580Z,20.32
2022-11-13T09:25:08.563Z,20.38
2022-11-13T09:26:08.565Z,20.41
2022-11-13T09:27:08.562Z,20.43
2022-11-13T09:28:08.559Z,20.48
2022-11-13T09:29:08.568Z,20.52
2022-11-13T09:30:08.596Z,20.54
2022-11-13T09:31:08.569Z,20.57
2022-11-13T09:32:08.568Z,20.59
2022-11-13T09:33:08.576Z,20.62
2022-11-13T09:34:08.574Z,20.62
2022-11-13T09:35:08.564Z,20.67
2022-11-13T09:36:08.609Z,20.70
2022-11-13T09:37:08.566Z,20.72
2022-11-13T09:38:10.988Z,20.76
2022-11-13T09:39:08.561Z,20.77
2022-11-13T09:40:08.558Z,20.80
2022-11-13T09:41:08.548Z,20.82
2022-11-13T09:42:08.600Z,20.88
2022-11-13T09:43:08.548Z,20.89
2022-11-13T09:44:08.545Z,20.94
2022-11-13T09:45:08.540Z,20.95
2022-11-13T09:46:08.537Z,20.98
2022-11-13T09:47:08.533Z,21.03
2022-11-13T09:48:08.556Z,21.06
2022-11-13T09:49:08.524Z,21.09
2022-11-13T09:50:08.516Z,21.12
2022-11-13T09:51:08.522Z,21.14
2022-11-13T09:52:08.521Z,21.14
2022-11-13T09:53:08.516Z,21.14
2022-11-13T09:54:08.545Z,21.16
2022-11-13T09:55:08.501Z,21.14
2022-11-13T09:56:08.502Z,21.16
2022-11-13T09:57:08.492Z,21.16
2022-11-13T09:58:08.497Z,21.16
2022-11-13T09:59:08.486Z,21.16
2022-11-13T10:00:08.517Z,21.16
2022-11-13T10:01:08.503Z,21.16
2022-11-13T10:02:08.480Z,21.16
2022-11-13T10:03:08.478Z,21.14
2022-11-13T10:04:13.240Z,21.14
2022-11-13T10:05:08.478Z,21.17
2022-11-13T10:06:08.511Z,21.17
2022-11-13T10:07:08.527Z,21.19
2022-11-13T10:08:08.464Z,21.19
2022-11-13T10:09:08.449Z,21.22
2022-11-13T10:10:08.445Z,21.22
2022-11-13T10:11:08.438Z,21.24
2022-11-13T10:12:08.472Z,21.27
2022-11-13T10:13:08.429Z,21.25
2022-11-13T10:14:08.422Z,21.25
2022-11-13T10:15:08.418Z,21.28
2022-11-13T10:16:08.419Z,21.29
2022-11-13T10:17:08.413Z,21.28
2022-11-13T10:18:08.438Z,21.28
2022-11-13T10:19:08.406Z,21.28
2022-11-13T10:20:08.405Z,21.29
2022-11-13T10:21:09.727Z,21.29
2022-11-13T10:22:31.609Z,21.28
2022-11-13T10:23:08.404Z,21.28
2022-11-13T10:24:14.053Z,21.28
2022-11-13T10:25:08.379Z,21.31
2022-11-13T10:26:08.378Z,21.37
2022-11-13T10:27:08.375Z,21.38
2022-11-13T10:28:34.978Z,21.40
2022-11-13T10:29:08.438Z,21.46
2022-11-13T10:30:08.367Z,21.46
2022-11-13T10:31:08.334Z,21.47
2022-11-13T10:32:08.331Z,21.46
2022-11-13T10:33:08.317Z,21.47
2022-11-13T10:34:08.311Z,21.47
2022-11-13T10:35:08.298Z,21.47
2022-11-13T10:36:08.317Z,21.50
2022-11-13T10:37:08.280Z,21.56
2022-11-13T10:38:09.051Z,21.58
2022-11-13T10:39:08.270Z,21.61
2022-11-13T10:40:08.258Z,21.64
2022-11-13T10:41:08.251Z,21.68
2022-11-13T10:42:08.278Z,21.68
2022-11-13T10:43:08.223Z,21.69
2022-11-13T10:44:08.204Z,21.67
2022-11-13T10:45:12.170Z,21.65
2022-11-13T10:46:08.179Z,21.68
2022-11-13T10:47:08.163Z,21.71
2022-11-13T10:48:08.193Z,21.69
2022-11-13T10:49:08.131Z,21.67
2022-11-13T10:50:08.123Z,21.64
2022-11-13T10:51:08.115Z,21.62
2022-11-13T10:52:11.346Z,21.61
2022-11-13T10:53:08.091Z,21.58
2022-11-13T10:54:08.207Z,21.58
2022-11-13T10:55:08.063Z,21.56
2022-11-13T10:56:08.056Z,21.54
2022-11-13T10:57:08.039Z,21.54
2022-11-13T10:58:08.023Z,21.53
2022-11-13T10:59:08.021Z,21.53
2022-11-13T11:00:08.056Z,21.53
2022-11-13T11:01:08.152Z,21.54
2022-11-13T11:02:07.988Z,21.54
2022-11-13T11:03:07.975Z,21.53
2022-11-13T11:04:07.956Z,21.54
2022-11-13T11:05:07.952Z,21.54
2022-11-13T11:06:07.976Z,21.52
2022-11-13T11:07:23.378Z,21.53
2022-11-13T11:08:07.974Z,21.53
2022-11-13T11:09:07.904Z,21.53
2022-11-13T11:10:07.893Z,21.58
2022-11-13T11:11:07.877Z,21.58
2022-11-13T11:12:07.909Z,21.59
2022-11-13T11:13:07.852Z,21.58
2022-11-13T11:14:07.833Z,21.59
2022-11-13T11:15:07.820Z,21.58
2022-11-13T11:16:07.792Z,21.61
2022-11-13T11:17:07.776Z,21.61
2022-11-13T11:18:07.797Z,21.59
2022-11-13T11:19:07.748Z,21.61
2022-11-13T11:20:07.733Z,21.64
2022-11-13T11:21:07.712Z,21.65
2022-11-13T11:22:07.694Z,21.68
2022-11-13T11:23:07.672Z,21.69
2022-11-13T11:24:07.780Z,21.69
2022-11-13T11:25:07.644Z,21.69
2022-11-13T11:26:07.620Z,21.69
2022-11-13T11:27:07.608Z,21.69
2022-11-13T11:28:07.596Z,21.71
2022-11-13T11:29:07.577Z,21.72
2022-11-13T11:30:07.668Z,21.72
2022-11-13T11:31:07.542Z,21.74
2022-11-13T11:32:07.529Z,21.74
2022-11-13T11:33:07.513Z,21.74
2022-11-13T11:34:07.504Z,21.72
2022-11-13T11:35:07.491Z,21.72
2022-11-13T11:36:07.510Z,21.74
2022-11-13T11:37:07.452Z,21.74
2022-11-13T11:38:07.435Z,21.74
2022-11-13T11:39:07.417Z,21.71
2022-11-13T11:40:07.405Z,21.72
2022-11-13T11:41:10.706Z,21.74
2022-11-13T11:42:07.412Z,21.75
2022-11-13T11:43:07.349Z,21.75
2022-11-13T11:44:07.337Z,21.74
2022-11-13T11:45:07.317Z,21.74
2022-11-13T11:46:07.301Z,21.75
2022-11-13T11:47:07.293Z,21.77
2022-11-13T11:48:07.329Z,21.79
2022-11-13T11:49:07.253Z,21.82
2022-11-13T11:50:07.238Z,21.82
2022-11-13T11:51:07.230Z,21.80
2022-11-13T11:52:07.214Z,21.80
2022-11-13T11:53:07.205Z,21.79
2022-11-13T11:54:07.218Z,21.82
2022-11-13T11:55:07.173Z,21.82
2022-11-13T11:56:07.173Z,21.80
2022-11-13T11:57:07.146Z,21.79
2022-11-13T11:58:07.138Z,21.79
2022-11-13T11:59:07.130Z,21.79
2022-11-13T12:00:07.217Z,21.74
2022-11-13T12:01:07.097Z,21.74
2022-11-13T12:02:07.082Z,21.71
2022-11-13T12:03:07.070Z,21.71
2022-11-13T12:04:07.058Z,21.71
2022-11-13T12:05:07.086Z,21.69
2022-11-13T12:06:07.155Z,21.67
2022-11-13T12:07:07.113Z,21.67
2022-11-13T12:08:07.006Z,21.65
2022-11-13T12:09:06.987Z,21.62
2022-11-13T12:10:06.978Z,21.58
2022-11-13T12:11:06.966Z,21.52
2022-11-13T12:12:07.077Z,21.49
2022-11-13T12:13:06.933Z,21.43
2022-11-13T12:14:06.921Z,21.40
2022-11-13T12:15:06.946Z,21.35
2022-11-13T12:16:06.914Z,21.32
2022-11-13T12:17:16.496Z,21.29
2022-11-13T12:18:06.955Z,21.25
2022-11-13T12:19:06.882Z,21.24
2022-11-13T12:20:06.871Z,21.22
2022-11-13T12:21:06.866Z,21.22
2022-11-13T12:22:06.865Z,21.22
2022-11-13T12:23:06.848Z,21.21
2022-11-13T12:24:06.949Z,21.19
2022-11-13T12:25:06.823Z,21.16
2022-11-13T12:26:06.809Z,21.13
2022-11-13T12:27:06.800Z,21.10
2022-11-13T12:28:06.790Z,21.09
2022-11-13T12:29:06.780Z,21.10
2022-11-13T12:30:06.892Z,21.10
2022-11-13T12:31:06.760Z,21.09
2022-11-13T12:32:06.734Z,21.09
2022-11-13T12:33:06.730Z,21.09
2022-11-13T12:34:06.724Z,21.07
2022-11-13T12:35:06.703Z,21.07
2022-11-13T12:36:06.720Z,21.07
2022-11-13T12:37:06.659Z,21.04
2022-11-13T12:38:06.652Z,21.04
2022-11-13T12:39:06.636Z,21.04
2022-11-13T12:40:06.631Z,21.03
2022-11-13T12:41:06.612Z,21.01
2022-11-13T12:42:06.627Z,21.01
2022-11-13T12:43:06.588Z,20.98
2022-11-13T12:44:06.582Z,20.98
2022-11-13T12:45:06.556Z,20.98
2022-11-13T12:46:06.543Z,20.95
2022-11-13T12:47:06.529Z,20.94
2022-11-13T12:48:06.552Z,20.92
2022-11-13T12:49:06.499Z,20.92
2022-11-13T12:50:06.492Z,20.92
2022-11-13T12:51:06.472Z,20.92
2022-11-13T12:52:06.460Z,20.91